Time;durP1;ratioP1;P1;durP2;ratioP2;P2;SDS_P1;SDS_P2;PMS_P1;PMS_P2;Temp;Humidity;BMP_temperature;BMP_pressure;BME280_temperature;BME280_humidity;BME280_pressure;Samples;Min_cycle;Max_cycle;Signal;HPM_P1;HPM_P2
2021/08/12 00:02:00;;;;;;;7.70;6.30;;;14.40;99.90;;;;;;5069311;28;20031;-46
2021/08/12 00:04:25;;;;;;;8.90;7.07;;;14.40;99.90;;;;;;5068489;28;20454;-46
2021/08/12 00:06:51;;;;;;;6.78;6.03;;;14.40;99.90;;;;;;5068892;28;20029;-45
2021/08/12 00:09:16;;;;;;;7.68;6.70;;;14.40;99.90;;;;;;5068734;28;20038;-44
2021/08/12 00:11:42;;;;;;;9.93;6.80;;;14.40;99.90;;;;;;5068981;28;20502;-45
2021/08/12 00:14:08;;;;;;;8.13;6.70;;;14.40;99.90;;;;;;5067795;28;20037;-45
2021/08/12 00:16:34;;;;;;;8.27;6.32;;;14.30;99.90;;;;;;5068413;28;20423;-46
2021/08/12 00:19:01;;;;;;;7.47;6.68;;;14.30;99.90;;;;;;5067170;28;20033;-47
2021/08/12 00:21:26;;;;;;;7.47;6.13;;;14.40;99.90;;;;;;5068239;28;20029;-46
2021/08/12 00:23:53;;;;;;;8.45;6.72;;;14.40;99.90;;;;;;5067714;28;20059;-47
2021/08/12 00:26:19;;;;;;;7.35;5.88;;;14.40;99.90;;;;;;5069408;28;20078;-46
2021/08/12 00:28:45;;;;;;;6.93;6.22;;;14.30;99.90;;;;;;5075100;28;20052;-48
2021/08/12 00:31:11;;;;;;;10.32;6.90;;;14.30;99.90;;;;;;5075184;28;20563;-50
2021/08/12 00:33:36;;;;;;;9.38;6.43;;;14.30;99.90;;;;;;5074406;28;20258;-47
2021/08/12 00:36:02;;;;;;;8.55;6.72;;;14.30;99.90;;;;;;5074991;28;20025;-48
2021/08/12 00:38:28;;;;;;;8.80;7.40;;;14.20;99.90;;;;;;5073549;28;20395;-46
2021/08/12 00:40:54;;;;;;;7.97;6.70;;;14.20;99.90;;;;;;5074810;28;20029;-45
2021/08/12 00:43:19;;;;;;;8.82;6.55;;;14.20;99.90;;;;;;5074213;28;20102;-46
2021/08/12 00:45:45;;;;;;;9.50;6.90;;;14.20;99.90;;;;;;5075060;28;20052;-46
2021/08/12 00:48:11;;;;;;;9.88;6.47;;;14.20;99.90;;;;;;5075165;28;20379;-45
2021/08/12 00:50:42;;;;;;;7.63;6.70;;;14.20;99.90;;;;;;5074999;28;20021;-45
2021/08/12 00:53:08;;;;;;;11.98;7.05;;;14.20;99.90;;;;;;5073662;28;20028;-45
2021/08/12 00:55:36;;;;;;;7.53;6.40;;;14.20;99.90;;;;;;5074157;28;20129;-45
2021/08/12 00:58:05;;;;;;;7.85;6.72;;;14.20;99.90;;;;;;5074793;28;20301;-46
2021/08/12 01:00:33;;;;;;;7.97;6.18;;;14.20;99.90;;;;;;5074539;28;20067;-46
2021/08/12 01:02:58;;;;;;;8.10;6.68;;;14.10;99.90;;;;;;5073123;28;20024;-47
2021/08/12 01:05:24;;;;;;;8.85;6.55;;;14.10;99.90;;;;;;5074129;28;20025;-49
2021/08/12 01:08:12;;;;;;;6.93;6.18;;;14.10;99.90;;;;;;5074618;28;20028;-48
2021/08/12 01:10:51;;;;;;;6.60;5.82;;;14.00;99.90;;;;;;5074628;28;20474;-47
2021/08/12 01:13:34;;;;;;;6.35;5.75;;;14.00;99.90;;;;;;5072804;28;20044;-46
2021/08/12 01:16:01;;;;;;;9.02;6.68;;;14.00;99.90;;;;;;5073330;28;20024;-47
2021/08/12 01:18:35;;;;;;;8.13;6.70;;;14.00;99.90;;;;;;5073219;28;20032;-47
2021/08/12 01:21:25;;;;;;;7.88;6.30;;;14.10;99.90;;;;;;5074872;28;20024;-47
2021/08/12 01:23:57;;;;;;;8.85;6.57;;;14.10;99.90;;;;;;5072575;28;20024;-46
2021/08/12 01:26:24;;;;;;;8.48;6.60;;;14.00;99.90;;;;;;5074512;28;20078;-46
2021/08/12 01:28:51;;;;;;;7.47;6.68;;;14.00;99.90;;;;;;5074397;28;20046;-46
2021/08/12 01:31:23;;;;;;;8.73;7.25;;;14.00;99.90;;;;;;5074610;28;20021;-45
2021/08/12 01:34:09;;;;;;;8.18;6.88;;;14.00;99.90;;;;;;5074176;28;20386;-46
2021/08/12 01:36:37;;;;;;;8.13;6.80;;;14.00;99.90;;;;;;5074398;28;20103;-46
2021/08/12 01:39:06;;;;;;;8.57;6.00;;;13.90;99.90;;;;;;5071014;28;20025;-47
2021/08/12 01:41:32;;;;;;;8.75;6.68;;;13.90;99.90;;;;;;5071110;28;20032;-47
2021/08/12 01:44:00;;;;;;;10.43;6.60;;;13.90;99.90;;;;;;5070313;28;20021;-47
2021/08/12 01:46:27;;;;;;;7.35;6.45;;;13.90;99.90;;;;;;5070986;28;20035;-48
2021/08/12 01:48:54;;;;;;;10.60;6.93;;;13.90;99.90;;;;;;5067110;28;20108;-45
2021/08/12 01:51:22;;;;;;;8.63;6.95;;;13.90;99.90;;;;;;5050947;28;20082;-46
2021/08/12 01:53:50;;;;;;;8.10;7.30;;;13.90;99.90;;;;;;5050675;28;20044;-46
2021/08/12 01:56:17;;;;;;;8.88;6.97;;;13.90;99.90;;;;;;5049754;28;20452;-46
2021/08/12 01:58:43;;;;;;;9.30;7.35;;;13.90;99.90;;;;;;5051238;28;20452;-46
2021/08/12 02:01:09;;;;;;;7.72;6.78;;;13.90;99.90;;;;;;5051088;28;20033;-47
2021/08/12 02:03:35;;;;;;;7.70;6.75;;;13.90;99.90;;;;;;5048814;28;20549;-45
2021/08/12 02:06:01;;;;;;;8.38;6.78;;;13.90;99.90;;;;;;5051131;28;20036;-47
2021/08/12 02:08:27;;;;;;;10.43;7.55;;;13.80;99.90;;;;;;5049100;28;20040;-47
2021/08/12 02:10:53;;;;;;;10.43;7.60;;;13.80;99.90;;;;;;5050669;28;20025;-47
2021/08/12 02:13:19;;;;;;;8.52;7.13;;;13.80;99.90;;;;;;5049981;28;20253;-48
2021/08/12 02:15:44;;;;;;;11.40;7.00;;;13.80;99.90;;;;;;5050212;28;20024;-47
2021/08/12 02:18:10;;;;;;;9.52;6.90;;;13.80;99.90;;;;;;5050585;28;20025;-47
2021/08/12 02:20:37;;;;;;;11.45;8.27;;;13.80;99.90;;;;;;5050547;28;20490;-46
2021/08/12 02:23:27;;;;;;;8.35;7.00;;;13.80;99.90;;;;;;5056383;28;20052;-48
2021/08/12 02:26:01;;;;;;;10.40;7.60;;;13.80;99.90;;;;;;5059125;28;20028;-46
2021/08/12 02:28:30;;;;;;;10.77;8.07;;;13.80;99.90;;;;;;5059938;28;20047;-46
2021/08/12 02:30:58;;;;;;;11.05;8.05;;;13.70;99.90;;;;;;5059202;28;20032;-46
2021/08/12 02:33:29;;;;;;;10.55;7.28;;;13.80;99.90;;;;;;5059461;28;20020;-46
2021/08/12 02:35:55;;;;;;;8.70;7.10;;;13.80;99.90;;;;;;5060844;28;20021;-49
2021/08/12 02:38:23;;;;;;;8.15;7.28;;;13.70;99.90;;;;;;5059480;28;20052;-49
2021/08/12 02:40:51;;;;;;;12.32;7.80;;;13.70;99.90;;;;;;5058613;28;20021;-46
2021/08/12 02:43:19;;;;;;;7.68;6.78;;;13.70;99.90;;;;;;5057851;28;20036;-46
2021/08/12 02:45:46;;;;;;;8.55;6.82;;;13.70;99.90;;;;;;5060117;28;20024;-47
2021/08/12 02:48:13;;;;;;;9.30;7.40;;;13.70;99.90;;;;;;5058614;28;20032;-45
2021/08/12 02:50:42;;;;;;;8.00;6.75;;;13.60;99.90;;;;;;5058145;28;20073;-46
2021/08/12 02:53:09;;;;;;;9.18;7.35;;;13.70;99.90;;;;;;5059323;28;20077;-48
2021/08/12 02:55:36;;;;;;;8.40;6.80;;;13.60;99.90;;;;;;5059595;28;20056;-46
2021/08/12 02:58:02;;;;;;;8.35;7.13;;;13.60;99.90;;;;;;5058395;28;20055;-46
2021/08/12 03:00:28;;;;;;;8.15;6.75;;;13.60;99.90;;;;;;5059178;28;20047;-47
2021/08/12 03:02:54;;;;;;;12.38;6.80;;;13.60;99.90;;;;;;5060160;28;20029;-49
2021/08/12 03:05:20;;;;;;;9.13;7.30;;;13.60;99.90;;;;;;5058410;28;20023;-49
2021/08/12 03:07:48;;;;;;;9.98;6.65;;;13.60;99.90;;;;;;5058594;28;20020;-49
2021/08/12 03:10:17;;;;;;;8.55;6.95;;;13.60;99.90;;;;;;5060036;28;20023;-48
2021/08/12 03:12:43;;;;;;;8.98;7.38;;;13.50;99.90;;;;;;5059011;28;20025;-47
2021/08/12 03:15:11;;;;;;;9.00;6.57;;;13.50;99.90;;;;;;5068794;28;20032;-48
2021/08/12 03:17:38;;;;;;;9.98;7.75;;;13.60;99.90;;;;;;5069525;28;20035;-47
2021/08/12 03:20:05;;;;;;;9.95;8.10;;;13.60;99.90;;;;;;5069503;28;20025;-50
2021/08/12 03:22:30;;;;;;;10.73;7.72;;;13.50;99.90;;;;;;5069031;28;20017;-50
2021/08/12 03:24:56;;;;;;;11.73;7.22;;;13.50;99.90;;;;;;5068435;28;20258;-50
2021/08/12 03:27:21;;;;;;;11.77;7.78;;;13.50;99.90;;;;;;5067677;28;20043;-48
2021/08/12 03:29:48;;;;;;;9.05;7.05;;;13.60;99.90;;;;;;5069030;28;20422;-49
2021/08/12 03:32:14;;;;;;;10.70;7.25;;;13.60;99.90;;;;;;5069155;28;20107;-48
2021/08/12 03:34:39;;;;;;;8.93;7.30;;;13.60;99.90;;;;;;5068330;28;20103;-51
2021/08/12 03:37:05;;;;;;;10.55;6.85;;;13.60;99.90;;;;;;5068971;28;20405;-49
2021/08/12 03:39:31;;;;;;;9.68;7.63;;;13.60;99.90;;;;;;5068921;28;20021;-47
2021/08/12 03:41:58;;;;;;;11.27;7.57;;;13.60;99.90;;;;;;5068843;28;20108;-48
2021/08/12 03:44:24;;;;;;;9.38;7.60;;;13.60;99.90;;;;;;5068363;28;20457;-50
2021/08/12 03:46:49;;;;;;;8.40;6.38;;;13.60;99.90;;;;;;5068949;28;20028;-49
2021/08/12 03:49:15;;;;;;;11.13;6.93;;;13.60;99.90;;;;;;5053405;28;20630;-49
2021/08/12 03:51:41;;;;;;;8.32;6.53;;;13.60;99.90;;;;;;5048761;28;20021;-49
2021/08/12 03:54:06;;;;;;;7.03;6.05;;;13.60;99.90;;;;;;5048004;28;20072;-48
2021/08/12 03:56:32;;;;;;;7.22;6.40;;;13.60;99.90;;;;;;5048577;28;20036;-50
2021/08/12 03:58:57;;;;;;;7.15;5.72;;;13.60;99.90;;;;;;5048835;28;20067;-51
2021/08/12 04:01:23;;;;;;;7.93;6.90;;;13.60;99.90;;;;;;5047975;28;20033;-51
2021/08/12 04:03:49;;;;;;;8.20;6.30;;;13.60;99.90;;;;;;5048030;28;20033;-48
2021/08/12 04:06:14;;;;;;;8.60;7.03;;;13.60;99.90;;;;;;5048530;28;20027;-51
2021/08/12 04:08:40;;;;;;;10.05;7.65;;;13.60;99.90;;;;;;5048537;28;20233;-47
2021/08/12 04:11:05;;;;;;;7.25;6.38;;;13.60;99.90;;;;;;5048579;28;20033;-49
2021/08/12 04:13:31;;;;;;;8.43;6.38;;;13.60;99.90;;;;;;5047598;28;20445;-50
2021/08/12 04:15:57;;;;;;;8.27;6.72;;;13.60;99.90;;;;;;5048643;28;20448;-49
2021/08/12 04:18:22;;;;;;;7.78;6.45;;;13.50;99.90;;;;;;5048375;28;20494;-50
2021/08/12 04:20:48;;;;;;;8.52;6.60;;;13.60;99.90;;;;;;5048534;28;20025;-49
2021/08/12 04:23:14;;;;;;;6.75;5.90;;;13.60;99.90;;;;;;5048355;28;20120;-50
2021/08/12 04:25:41;;;;;;;8.52;6.85;;;13.60;99.90;;;;;;5048452;28;20055;-49
2021/08/12 04:28:07;;;;;;;9.00;6.72;;;13.60;99.90;;;;;;5048458;28;20036;-48
2021/08/12 04:30:33;;;;;;;8.05;6.57;;;13.60;99.90;;;;;;5048245;28;20021;-49
2021/08/12 04:32:58;;;;;;;8.70;7.05;;;13.70;99.90;;;;;;5046867;28;20074;-49
2021/08/12 04:35:24;;;;;;;8.63;6.15;;;13.80;99.90;;;;;;5047573;28;20436;-51
2021/08/12 04:37:49;;;;;;;9.75;7.10;;;13.80;99.90;;;;;;5048283;28;20434;-48
2021/08/12 04:40:17;;;;;;;9.82;7.00;;;13.90;99.90;;;;;;5048228;28;20058;-46
2021/08/12 04:42:44;;;;;;;8.23;6.80;;;13.90;99.90;;;;;;5051703;28;20391;-47
2021/08/12 04:45:11;;;;;;;7.97;6.75;;;14.00;99.90;;;;;;5054899;28;20024;-45
2021/08/12 04:47:37;;;;;;;7.13;6.43;;;14.00;99.90;;;;;;5056415;28;20113;-45
2021/08/12 04:50:05;;;;;;;8.82;6.93;;;14.00;99.90;;;;;;5061768;28;20182;-47
2021/08/12 04:52:31;;;;;;;7.65;6.57;;;14.10;99.90;;;;;;5066822;28;20063;-45
2021/08/12 04:54:57;;;;;;;12.23;6.60;;;14.10;99.90;;;;;;5056103;28;20052;-45
2021/08/12 04:57:22;;;;;;;9.15;7.32;;;14.10;99.90;;;;;;5058824;28;20534;-45
2021/08/12 04:59:48;;;;;;;8.80;7.00;;;14.10;99.90;;;;;;5058531;28;20021;-45
2021/08/12 05:02:13;;;;;;;8.52;7.00;;;14.20;99.90;;;;;;5056981;28;20082;-45
2021/08/12 05:04:39;;;;;;;7.68;6.03;;;14.20;99.90;;;;;;5057671;28;20323;-45
2021/08/12 05:07:04;;;;;;;7.97;6.63;;;14.30;99.90;;;;;;5057731;28;20021;-45
2021/08/12 05:09:30;;;;;;;10.60;6.72;;;14.30;99.90;;;;;;5059136;28;20078;-46
2021/08/12 05:11:55;;;;;;;10.10;7.40;;;14.40;99.90;;;;;;5059991;28;20037;-46
2021/08/12 05:14:21;;;;;;;7.78;6.53;;;14.40;99.90;;;;;;5069744;28;20040;-47
2021/08/12 05:16:46;;;;;;;8.52;7.07;;;14.50;99.90;;;;;;5071906;28;20032;-47
2021/08/12 05:19:12;;;;;;;9.63;7.32;;;14.50;99.90;;;;;;5072081;28;20039;-47
2021/08/12 05:21:37;;;;;;;8.23;6.82;;;14.50;99.90;;;;;;5071890;28;20036;-46
2021/08/12 05:24:03;;;;;;;9.57;6.75;;;14.60;99.90;;;;;;5071090;28;20316;-48
2021/08/12 05:26:29;;;;;;;9.75;7.20;;;14.70;99.90;;;;;;5070332;28;20078;-47
2021/08/12 05:28:54;;;;;;;9.95;7.93;;;14.70;99.90;;;;;;5070199;28;20119;-47
2021/08/12 05:31:20;;;;;;;10.15;7.15;;;14.70;99.90;;;;;;5071400;28;20039;-47
2021/08/12 05:33:46;;;;;;;8.70;7.32;;;14.80;99.90;;;;;;5066790;28;20547;-45
2021/08/12 05:36:11;;;;;;;9.55;7.75;;;14.80;99.90;;;;;;5060963;28;20033;-46
2021/08/12 05:38:37;;;;;;;8.57;6.72;;;14.90;99.90;;;;;;5061831;28;20028;-46
2021/08/12 05:41:02;;;;;;;8.30;6.88;;;14.90;99.90;;;;;;5059291;28;20031;-46
2021/08/12 05:43:28;;;;;;;11.70;7.20;;;15.00;99.90;;;;;;5059517;28;20401;-45
2021/08/12 05:45:54;;;;;;;10.25;7.53;;;15.10;99.90;;;;;;5061683;28;20017;-46
2021/08/12 05:48:20;;;;;;;10.70;7.55;;;15.20;99.90;;;;;;5060284;28;20096;-46
2021/08/12 05:50:46;;;;;;;10.18;7.78;;;15.30;99.90;;;;;;5058984;28;20469;-45
2021/08/12 05:53:13;;;;;;;9.45;7.40;;;15.50;99.90;;;;;;5058650;28;20383;-45
2021/08/12 05:55:39;;;;;;;9.48;6.95;;;15.60;99.90;;;;;;5061624;28;20043;-46
2021/08/12 05:58:04;;;;;;;11.68;7.88;;;15.70;99.90;;;;;;5062381;28;20028;-46
2021/08/12 06:00:30;;;;;;;16.45;7.55;;;15.80;99.90;;;;;;5064410;28;20081;-46
2021/08/12 06:03:01;;;;;;;10.63;7.97;;;16.00;99.90;;;;;;5070531;28;20064;-46
2021/08/12 06:05:26;;;;;;;25.73;7.85;;;16.10;99.90;;;;;;5061765;28;20063;-46
2021/08/12 06:07:52;;;;;;;7.90;6.70;;;16.20;99.90;;;;;;5061169;28;20107;-45
2021/08/12 06:10:19;;;;;;;11.68;7.22;;;16.40;99.90;;;;;;5060396;28;20029;-45
2021/08/12 06:12:45;;;;;;;9.68;6.40;;;16.50;99.90;;;;;;5059233;28;20024;-46
2021/08/12 06:15:11;;;;;;;8.63;6.63;;;16.60;99.90;;;;;;5058944;28;20045;-46
2021/08/12 06:17:37;;;;;;;9.25;6.90;;;16.80;99.90;;;;;;5060763;28;20039;-45
2021/08/12 06:20:03;;;;;;;8.10;6.00;;;16.90;99.90;;;;;;5061262;28;20040;-45
2021/08/12 06:22:28;;;;;;;8.15;5.97;;;17.00;99.90;;;;;;5060844;28;20070;-48
2021/08/12 06:24:54;;;;;;;8.80;5.85;;;17.20;99.90;;;;;;5058461;28;20017;-45
2021/08/12 06:27:19;;;;;;;7.90;5.95;;;17.40;99.90;;;;;;5061698;28;20052;-46
2021/08/12 06:29:45;;;;;;;9.93;6.15;;;17.50;99.90;;;;;;5070288;28;20309;-46
2021/08/12 06:32:11;;;;;;;7.25;5.55;;;17.60;99.90;;;;;;5070341;28;20386;-46
2021/08/12 06:34:36;;;;;;;10.10;5.95;;;17.80;99.90;;;;;;5068380;28;20034;-46
2021/08/12 06:37:02;;;;;;;9.85;6.18;;;17.90;99.90;;;;;;5070245;28;20282;-45
2021/08/12 06:39:27;;;;;;;6.38;5.75;;;18.00;99.90;;;;;;5070329;28;20025;-47
2021/08/12 06:41:53;;;;;;;7.13;5.85;;;18.20;99.90;;;;;;5070686;28;20036;-47
2021/08/12 06:44:18;;;;;;;7.38;5.03;;;18.30;99.90;;;;;;5069788;28;20035;-45
2021/08/12 06:46:44;;;;;;;7.05;5.60;;;18.40;99.90;;;;;;5070233;28;20020;-46
2021/08/12 06:49:09;;;;;;;8.05;5.18;;;18.50;99.90;;;;;;5068803;28;20081;-46
2021/08/12 06:51:35;;;;;;;8.80;5.03;;;18.70;99.90;;;;;;5069877;28;20035;-46
2021/08/12 06:54:01;;;;;;;14.63;5.10;;;18.90;99.90;;;;;;5069279;28;20444;-46
2021/08/12 06:56:27;;;;;;;6.53;4.70;;;19.10;99.90;;;;;;5069989;28;20336;-46
2021/08/12 06:58:52;;;;;;;5.53;4.07;;;19.30;99.90;;;;;;5068301;28;20024;-47
2021/08/12 07:01:18;;;;;;;6.78;4.45;;;19.50;99.90;;;;;;5069648;28;20039;-46
2021/08/12 07:03:43;;;;;;;7.97;4.90;;;19.70;99.90;;;;;;5068856;28;20103;-46
2021/08/12 07:06:09;;;;;;;7.93;5.15;;;19.90;99.90;;;;;;5069479;28;20020;-46
2021/08/12 07:08:34;;;;;;;5.65;4.10;;;20.10;99.90;;;;;;5069510;28;20028;-46
2021/08/12 07:10:59;;;;;;;6.32;4.88;;;20.30;99.90;;;;;;5069635;28;20120;-49
2021/08/12 07:13:25;;;;;;;7.28;4.18;;;20.50;99.90;;;;;;5068820;28;20398;-47
2021/08/12 07:15:51;;;;;;;7.60;4.63;;;20.60;99.90;;;;;;5069099;28;20035;-46
2021/08/12 07:18:16;;;;;;;5.68;4.50;;;20.70;99.90;;;;;;5069612;28;20070;-46
2021/08/12 07:20:42;;;;;;;5.57;4.28;;;20.80;99.90;;;;;;5069243;28;20060;-46
2021/08/12 07:23:07;;;;;;;7.97;5.40;;;20.90;99.90;;;;;;5069002;28;20037;-47
2021/08/12 07:25:34;;;;;;;5.32;4.32;;;20.90;99.90;;;;;;5068498;28;20017;-48
2021/08/12 07:28:00;;;;;;;8.63;4.57;;;21.00;99.90;;;;;;5069323;28;20428;-47
2021/08/12 07:30:25;;;;;;;8.00;4.95;;;21.10;99.90;;;;;;5068324;28;20203;-47
2021/08/12 07:32:51;;;;;;;6.15;4.28;;;21.20;99.80;;;;;;5068548;28;20086;-46
2021/08/12 07:35:20;;;;;;;6.85;4.22;;;21.30;99.80;;;;;;5068192;28;20047;-49
2021/08/12 07:37:46;;;;;;;5.90;4.60;;;21.40;99.40;;;;;;5068026;28;20132;-48
2021/08/12 07:40:12;;;;;;;9.77;4.50;;;21.50;99.60;;;;;;5068801;28;20399;-49
2021/08/12 07:42:38;;;;;;;5.70;4.68;;;21.70;99.70;;;;;;5068653;28;20059;-48
2021/08/12 07:45:05;;;;;;;5.07;4.47;;;21.80;99.00;;;;;;5066706;28;20056;-47
2021/08/12 07:47:32;;;;;;;5.18;3.92;;;22.00;99.00;;;;;;5067440;28;20025;-48
2021/08/12 07:49:58;;;;;;;6.70;4.35;;;22.10;98.90;;;;;;5068890;28;20024;-47
2021/08/12 07:52:24;;;;;;;8.02;4.63;;;22.30;98.10;;;;;;5068804;28;20090;-48
2021/08/12 07:54:50;;;;;;;7.82;4.80;;;22.60;97.60;;;;;;5068212;28;20093;-49
2021/08/12 07:57:16;;;;;;;10.05;4.53;;;22.80;96.20;;;;;;5068923;28;20138;-50
2021/08/12 07:59:42;;;;;;;8.18;4.55;;;23.20;96.20;;;;;;5067302;28;20020;-47
2021/08/12 08:02:07;;;;;;;8.05;4.40;;;23.60;95.50;;;;;;5068552;28;20100;-47
2021/08/12 08:04:33;;;;;;;8.95;4.72;;;23.80;94.50;;;;;;5068229;28;20478;-48
2021/08/12 08:07:00;;;;;;;6.88;4.32;;;24.10;93.40;;;;;;5068501;28;20027;-49
2021/08/12 08:09:25;;;;;;;7.97;4.40;;;24.20;93.40;;;;;;5068563;28;20025;-46
2021/08/12 08:11:51;;;;;;;5.80;4.35;;;24.30;92.10;;;;;;5060450;28;20490;-48
2021/08/12 08:14:17;;;;;;;5.88;4.80;;;24.40;91.50;;;;;;5046336;28;20175;-45
2021/08/12 08:16:43;;;;;;;7.35;4.93;;;24.50;90.30;;;;;;5048260;28;20705;-46
2021/08/12 08:19:09;;;;;;;8.55;5.15;;;24.50;90.20;;;;;;5048170;28;20514;-47
2021/08/12 08:21:35;;;;;;;4.97;4.47;;;24.60;88.80;;;;;;5046902;28;20021;-49
2021/08/12 08:24:01;;;;;;;6.90;4.80;;;25.00;89.00;;;;;;5047404;28;20100;-49
2021/08/12 08:26:26;;;;;;;5.97;4.45;;;25.60;87.00;;;;;;5048315;28;20150;-46
2021/08/12 08:28:52;;;;;;;5.50;4.68;;;26.20;85.60;;;;;;5048240;28;20033;-46
2021/08/12 08:31:17;;;;;;;7.95;4.70;;;26.60;82.70;;;;;;5048409;28;20025;-47
2021/08/12 08:33:43;;;;;;;7.65;4.60;;;26.90;78.80;;;;;;5047788;28;20025;-47
2021/08/12 08:36:08;;;;;;;7.07;4.60;;;27.10;76.50;;;;;;5048739;28;20043;-47
2021/08/12 08:38:34;;;;;;;6.45;4.53;;;26.80;75.70;;;;;;5046883;28;20048;-46
2021/08/12 08:41:01;;;;;;;10.20;4.75;;;27.20;75.30;;;;;;5048395;28;20025;-48
2021/08/12 08:43:29;;;;;;;6.82;4.90;;;27.80;72.80;;;;;;5047044;28;20496;-46
2021/08/12 08:45:56;;;;;;;4.40;4.00;;;28.50;73.00;;;;;;5068088;28;20067;-46
2021/08/12 08:48:24;;;;;;;7.57;4.53;;;29.20;69.70;;;;;;5069919;28;20042;-48
2021/08/12 08:50:51;;;;;;;5.65;4.00;;;29.40;67.50;;;;;;5072310;28;20566;-47
2021/08/12 08:53:18;;;;;;;4.88;4.13;;;29.70;65.30;;;;;;5071646;28;20111;-46
2021/08/12 08:55:45;;;;;;;5.78;4.60;;;30.00;64.60;;;;;;5072171;28;20036;-48
2021/08/12 08:58:12;;;;;;;6.20;4.53;;;30.30;62.00;;;;;;5071875;28;20024;-46
2021/08/12 09:00:38;;;;;;;7.25;3.97;;;30.90;57.80;;;;;;5071883;28;20469;-47
2021/08/12 09:03:04;;;;;;;6.10;5.30;;;31.60;58.80;;;;;;5071617;28;20482;-47
2021/08/12 09:05:30;;;;;;;5.55;4.40;;;31.80;55.10;;;;;;5071373;28;20070;-48
2021/08/12 09:07:55;;;;;;;5.10;4.60;;;32.80;53.80;;;;;;5064264;28;20040;-47
2021/08/12 09:10:22;;;;;;;5.35;4.32;;;32.70;53.30;;;;;;5051913;28;20557;-48
2021/08/12 09:12:49;;;;;;;5.32;4.20;;;33.20;52.50;;;;;;5051637;28;20033;-47
2021/08/12 09:15:23;;;;;;;6.30;4.28;;;33.30;51.10;;;;;;5050963;28;20248;-49
2021/08/12 09:17:50;;;;;;;5.43;4.22;;;33.60;50.60;;;;;;5067047;28;20048;-46
2021/08/12 09:20:22;;;;;;;4.70;4.20;;;34.00;50.60;;;;;;5071540;28;20102;-47
2021/08/12 09:23:07;;;;;;;6.50;4.50;;;33.70;48.90;;;;;;5071522;28;20142;-46
2021/08/12 09:25:42;;;;;;;5.15;4.63;;;34.00;49.40;;;;;;5070805;28;20019;-47
2021/08/12 09:28:12;;;;;;;5.97;4.40;;;34.00;48.40;;;;;;5055299;28;20021;-46
2021/08/12 09:30:38;;;;;;;7.90;4.72;;;33.50;48.50;;;;;;5050046;28;20021;-47
2021/08/12 09:33:03;;;;;;;4.72;4.22;;;33.90;47.40;;;;;;5051420;28;20041;-47
2021/08/12 09:35:29;;;;;;;4.80;4.40;;;33.70;48.70;;;;;;5050836;28;20390;-47
2021/08/12 09:38:08;;;;;;;7.75;4.82;;;32.60;48.40;;;;;;5051268;28;20079;-46
2021/08/12 09:40:34;;;;;;;5.63;5.13;;;31.30;51.30;;;;;;5058318;28;20470;-47
2021/08/12 09:43:02;;;;;;;5.78;4.80;;;31.20;51.50;;;;;;5069572;28;20035;-48
2021/08/12 09:45:29;;;;;;;5.00;4.50;;;31.80;51.40;;;;;;5067827;28;20050;-48
2021/08/12 09:47:56;;;;;;;5.10;4.32;;;32.60;51.30;;;;;;5062426;28;20186;-46
2021/08/12 09:50:34;;;;;;;5.53;4.90;;;32.50;50.40;;;;;;5053946;28;20021;-46
2021/08/12 09:53:00;;;;;;;6.28;4.85;;;32.00;49.60;;;;;;5053689;28;20040;-46
2021/08/12 09:55:26;;;;;;;6.13;5.20;;;31.80;51.30;;;;;;5053594;28;20380;-46
2021/08/12 09:58:05;;;;;;;5.85;4.57;;;31.40;51.80;;;;;;5051837;28;20450;-49
2021/08/12 10:00:35;;;;;;;8.07;4.88;;;31.40;52.30;;;;;;5070134;28;20027;-49
2021/08/12 10:03:17;;;;;;;5.72;4.75;;;31.40;52.20;;;;;;5069956;28;20048;-49
2021/08/12 10:05:43;;;;;;;8.30;5.10;;;31.60;51.60;;;;;;5049311;28;20048;-48
2021/08/12 10:08:08;;;;;;;5.35;4.82;;;31.50;51.60;;;;;;5056786;28;20035;-50
2021/08/12 10:10:34;;;;;;;6.30;5.30;;;31.60;51.90;;;;;;5053360;28;20104;-49
2021/08/12 10:13:01;;;;;;;8.07;5.32;;;31.30;51.70;;;;;;5050551;28;20124;-50
2021/08/12 10:15:30;;;;;;;6.25;5.10;;;31.00;52.40;;;;;;5050162;28;20430;-47
2021/08/12 10:17:59;;;;;;;7.00;5.32;;;30.80;53.10;;;;;;5050538;28;20029;-49
2021/08/12 10:20:27;;;;;;;6.45;5.03;;;30.80;52.10;;;;;;5050564;28;20036;-47
2021/08/12 10:22:55;;;;;;;6.90;4.90;;;30.60;52.90;;;;;;5050555;28;20155;-49
2021/08/12 10:25:22;;;;;;;5.35;4.70;;;31.00;52.70;;;;;;5057798;28;20379;-47
2021/08/12 10:27:50;;;;;;;5.30;4.80;;;32.60;50.90;;;;;;5055245;28;20056;-49
2021/08/12 10:30:18;;;;;;;5.13;4.63;;;33.60;50.60;;;;;;5064690;28;20502;-47
2021/08/12 10:33:13;;;;;;;5.43;4.50;;;34.00;49.40;;;;;;5070271;28;20406;-48
2021/08/12 10:35:39;;;;;;;6.72;4.75;;;33.00;49.00;;;;;;5070170;28;20108;-47
2021/08/12 10:38:04;;;;;;;7.78;4.60;;;33.50;49.50;;;;;;5070258;28;20162;-48
2021/08/12 10:40:32;;;;;;;4.97;4.20;;;33.30;49.40;;;;;;5070159;28;20020;-48
2021/08/12 10:43:00;;;;;;;6.05;4.55;;;34.10;49.50;;;;;;5070005;28;20111;-47
2021/08/12 10:45:27;;;;;;;6.72;4.78;;;33.50;48.90;;;;;;5068226;28;20051;-47
2021/08/12 10:47:57;;;;;;;5.05;4.10;;;32.70;49.40;;;;;;5070280;28;20024;-47
2021/08/12 10:50:23;;;;;;;5.13;4.35;;;33.10;49.70;;;;;;5068908;28;20021;-47
2021/08/12 10:53:14;;;;;;;4.65;4.15;;;32.50;50.40;;;;;;5069591;28;20126;-48
2021/08/12 10:55:51;;;;;;;5.03;4.03;;;33.00;50.50;;;;;;5047446;28;20048;-49
2021/08/12 10:58:23;;;;;;;4.45;4.05;;;33.70;50.90;;;;;;5052155;28;20032;-47
2021/08/12 11:00:49;;;;;;;8.88;4.68;;;33.30;49.40;;;;;;5048554;28;20024;-49
2021/08/12 11:03:28;;;;;;;7.85;4.57;;;32.40;50.30;;;;;;5048559;28;20062;-47
2021/08/12 11:06:03;;;;;;;5.00;4.28;;;32.30;50.50;;;;;;5061212;28;20391;-47
2021/08/12 11:09:12;;;;;;;7.57;4.80;;;32.50;49.90;;;;;;5063783;28;20048;-50
2021/08/12 11:11:37;;;;;;;5.68;4.28;;;31.60;51.50;;;;;;5059884;28;20063;-47
2021/08/12 11:14:12;;;;;;;7.03;4.65;;;32.40;52.00;;;;;;5057209;28;20052;-47
2021/08/12 11:16:40;;;;;;;5.72;4.63;;;32.90;51.10;;;;;;5064425;28;20037;-47
2021/08/12 11:19:29;;;;;;;4.40;4.00;;;34.00;48.90;;;;;;5058213;28;20564;-49
2021/08/12 11:21:55;;;;;;;4.53;4.13;;;34.30;48.90;;;;;;5060987;28;20039;-47
2021/08/12 11:24:24;;;;;;;5.05;4.53;;;33.80;48.00;;;;;;5052033;28;20613;-50
2021/08/12 11:26:50;;;;;;;4.85;4.13;;;34.20;49.30;;;;;;5055245;28;20021;-48
2021/08/12 11:29:25;;;;;;;5.28;4.68;;;34.70;48.10;;;;;;5053330;28;20429;-47
2021/08/12 11:32:09;;;;;;;5.15;4.43;;;35.50;46.60;;;;;;5061796;28;20139;-46
2021/08/12 11:34:55;;;;;;;7.65;4.57;;;34.40;47.90;;;;;;5054834;28;20032;-47
2021/08/12 11:37:21;;;;;;;5.10;4.60;;;34.40;46.50;;;;;;5058689;28;20051;-47
2021/08/12 11:40:01;;;;;;;5.20;4.13;;;33.60;49.20;;;;;;5058930;28;20025;-48
2021/08/12 11:42:40;;;;;;;5.25;4.28;;;34.10;50.40;;;;;;5062428;28;20533;-47
2021/08/12 11:45:08;;;;;;;5.43;4.20;;;34.50;48.20;;;;;;5068427;28;20029;-50
2021/08/12 11:47:35;;;;;;;5.05;4.47;;;34.20;47.10;;;;;;5068085;28;20020;-46
2021/08/12 11:50:03;;;;;;;4.40;3.92;;;34.40;48.70;;;;;;5067539;28;20039;-47
2021/08/12 11:52:36;;;;;;;4.72;4.25;;;35.10;48.80;;;;;;5065779;28;20013;-48
2021/08/12 11:55:09;;;;;;;5.50;4.28;;;36.30;47.40;;;;;;5067777;28;20585;-48
2021/08/12 11:57:42;;;;;;;4.40;4.00;;;36.70;44.80;;;;;;5068751;28;20024;-46
2021/08/12 12:00:20;;;;;;;7.22;3.97;;;37.70;43.10;;;;;;5068615;28;20051;-46
2021/08/12 12:02:53;;;;;;;6.38;4.22;;;35.40;43.80;;;;;;5062350;28;20017;-47
2021/08/12 12:05:20;;;;;;;4.93;4.28;;;34.50;47.20;;;;;;5056557;28;20714;-46
2021/08/12 12:07:48;;;;;;;5.28;4.22;;;34.80;47.90;;;;;;5072702;28;20025;-49
2021/08/12 12:10:27;;;;;;;5.05;4.10;;;35.00;46.30;;;;;;5060172;28;20368;-49
2021/08/12 12:12:55;;;;;;;6.63;4.60;;;35.00;46.70;;;;;;5062589;28;20043;-48
2021/08/12 12:15:34;;;;;;;4.85;4.40;;;34.30;46.30;;;;;;5067542;28;20036;-47
2021/08/12 12:18:01;;;;;;;5.18;4.32;;;34.00;46.70;;;;;;5068264;28;20020;-46
2021/08/12 12:20:27;;;;;;;6.15;4.30;;;34.40;47.30;;;;;;5068652;28;20035;-47
2021/08/12 12:23:10;;;;;;;4.97;4.47;;;34.50;47.60;;;;;;5066465;28;20024;-47
2021/08/12 12:25:39;;;;;;;6.68;5.03;;;34.40;47.80;;;;;;5066647;28;20021;-47
2021/08/12 12:28:06;;;;;;;6.27;4.40;;;33.80;46.50;;;;;;5067048;28;20115;-46
2021/08/12 12:30:33;;;;;;;5.95;4.53;;;34.00;48.30;;;;;;5068479;28;20017;-46
2021/08/12 12:33:04;;;;;;;6.78;4.50;;;33.60;48.40;;;;;;5065283;28;20707;-46
2021/08/12 12:35:32;;;;;;;4.75;4.07;;;33.30;48.90;;;;;;5053178;28;20021;-51
2021/08/12 12:38:00;;;;;;;4.93;4.45;;;33.60;49.90;;;;;;5048113;28;20029;-46
2021/08/12 12:40:33;;;;;;;6.68;4.45;;;33.50;49.20;;;;;;5048359;28;20017;-47
2021/08/12 12:43:00;;;;;;;6.38;4.32;;;33.80;49.50;;;;;;5049041;28;20380;-46
2021/08/12 12:45:26;;;;;;;5.88;4.70;;;34.00;49.50;;;;;;5059422;28;20418;-46
2021/08/12 12:47:51;;;;;;;5.28;4.22;;;34.10;49.60;;;;;;5067390;28;20548;-46
2021/08/12 12:50:22;;;;;;;6.10;4.18;;;33.00;46.80;;;;;;5067871;28;20037;-46